Time;durP1;ratioP1;P1;durP2;ratioP2;P2;SDS_P1;SDS_P2;PMS_P1;PMS_P2;Temp;Humidity;BMP_temperature;BMP_pressure;BME280_temperature;BME280_humidity;BME280_pressure;Samples;Min_cycle;Max_cycle;Signal;HPM_P1;HPM_P2
2023/03/07 00:00:40;;;;;;;3.65;3.35;;;;;;;;;;5038137;28;20032;-81
2023/03/07 00:03:06;;;;;;;6.75;3.42;;;;;;;;;;5054913;28;20120;-81
2023/03/07 00:05:32;;;;;;;5.18;3.88;;;;;;;;;;5064881;28;20179;-78
2023/03/07 00:07:58;;;;;;;4.32;3.92;;;;;;;;;;5034284;28;20040;-79
2023/03/07 00:10:24;;;;;;;3.30;3.10;;;;;;;;;;5072328;28;20032;-82
2023/03/07 00:12:51;;;;;;;2.65;2.53;;;;;;;;;;5073618;28;20032;-80
2023/03/07 00:15:17;;;;;;;3.78;3.22;;;;;;;;;;5069917;28;20032;-80
2023/03/07 00:17:43;;;;;;;2.70;2.50;;;;;;;;;;5035603;28;20047;-79
2023/03/07 00:20:10;;;;;;;3.00;2.78;;;;;;;;;;5050434;28;20091;-79
2023/03/07 00:22:36;;;;;;;3.85;3.50;;;;;;;;;;5033116;28;20037;-80
2023/03/07 00:25:02;;;;;;;4.10;3.20;;;;;;;;;;5051951;28;20036;-79
2023/03/07 00:27:29;;;;;;;3.03;2.83;;;;;;;;;;5016954;28;20076;-79
2023/03/07 00:29:58;;;;;;;2.13;2.03;;;;;;;;;;5051653;28;20037;-81
2023/03/07 00:32:25;;;;;;;2.42;2.33;;;;;;;;;;5051047;28;20040;-79
2023/03/07 00:34:51;;;;;;;2.97;2.70;;;;;;;;;;5051893;28;20029;-78
2023/03/07 00:37:21;;;;;;;2.03;1.92;;;;;;;;;;5049729;28;20044;-78
2023/03/07 00:39:47;;;;;;;3.43;3.20;;;;;;;;;;5050028;28;20041;-79
2023/03/07 00:42:13;;;;;;;2.92;2.63;;;;;;;;;;5049709;28;20825;-79
2023/03/07 00:44:39;;;;;;;1.98;1.88;;;;;;;;;;5049262;28;20116;-78
2023/03/07 00:47:06;;;;;;;4.18;2.38;;;;;;;;;;5049096;28;20033;-79
2023/03/07 00:49:32;;;;;;;2.30;2.20;;;;;;;;;;5031158;28;20132;-79
2023/03/07 00:51:58;;;;;;;3.15;2.85;;;;;;;;;;5016891;28;20036;-80
2023/03/07 00:54:24;;;;;;;2.25;2.15;;;;;;;;;;5016622;28;20041;-80
2023/03/07 00:56:50;;;;;;;2.33;2.22;;;;;;;;;;5033344;28;20029;-78
2023/03/07 00:59:16;;;;;;;2.90;2.58;;;;;;;;;;5032879;28;20494;-79
2023/03/07 01:01:45;;;;;;;2.58;2.47;;;;;;;;;;5051085;28;20032;-79
2023/03/07 01:04:11;;;;;;;2.55;2.35;;;;;;;;;;5050456;28;20123;-79
2023/03/07 01:06:38;;;;;;;3.30;3.10;;;;;;;;;;5016202;28;20043;-78
2023/03/07 01:09:06;;;;;;;2.35;2.10;;;;;;;;;;5032930;28;20120;-79
2023/03/07 01:11:33;;;;;;;3.03;2.83;;;;;;;;;;5032959;28;20044;-77
2023/03/07 01:13:59;;;;;;;3.70;3.08;;;;;;;;;;5032533;28;20037;-79
2023/03/07 01:16:27;;;;;;;4.20;2.90;;;;;;;;;;5033025;28;20025;-78
2023/03/07 01:18:54;;;;;;;2.40;2.30;;;;;;;;;;5033053;28;20128;-78
2023/03/07 01:21:23;;;;;;;3.67;3.15;;;;;;;;;;5016258;28;20809;-79
2023/03/07 01:23:50;;;;;;;3.30;3.08;;;;;;;;;;5032892;28;20041;-78
2023/03/07 01:26:17;;;;;;;3.83;3.53;;;;;;;;;;5032421;28;20049;-79
2023/03/07 01:28:43;;;;;;;3.45;3.08;;;;;;;;;;5050198;28;20041;-78
2023/03/07 01:31:09;;;;;;;3.63;3.33;;;;;;;;;;5016187;28;20039;-78
2023/03/07 01:33:36;;;;;;;3.78;3.22;;;;;;;;;;5015609;28;20068;-77
2023/03/07 01:36:03;;;;;;;2.88;2.67;;;;;;;;;;5016339;28;20041;-77
2023/03/07 01:38:32;;;;;;;4.22;3.83;;;;;;;;;;4999264;28;20040;-79
2023/03/07 01:41:01;;;;;;;4.03;3.72;;;;;;;;;;5032719;28;20120;-78
2023/03/07 01:43:28;;;;;;;3.28;3.03;;;;;;;;;;5015709;28;20492;-78
2023/03/07 01:46:17;;;;;;;5.22;3.53;;;;;;;;;;5024498;28;20049;-77
2023/03/07 01:48:46;;;;;;;3.70;3.40;;;;;;;;;;5048423;28;20098;-78
2023/03/07 01:51:12;;;;;;;3.63;3.15;;;;;;;;;;5049836;28;20032;-78
2023/03/07 01:53:38;;;;;;;3.03;2.80;;;;;;;;;;5048226;28;20102;-78
2023/03/07 01:56:05;;;;;;;2.95;2.65;;;;;;;;;;5032297;28;20495;-79
2023/03/07 01:58:31;;;;;;;4.70;2.72;;;;;;;;;;5031477;28;20075;-80
2023/03/07 02:00:59;;;;;;;3.42;2.90;;;;;;;;;;5048166;28;20037;-80
2023/03/07 02:03:29;;;;;;;4.10;3.75;;;;;;;;;;5049013;28;20060;-79
2023/03/07 02:06:01;;;;;;;2.33;2.17;;;;;;;;;;5031701;28;20041;-79
2023/03/07 02:08:27;;;;;;;2.97;2.60;;;;;;;;;;5047688;28;20429;-78
2023/03/07 02:10:54;;;;;;;3.80;2.95;;;;;;;;;;5031475;28;20033;-78
2023/03/07 02:13:20;;;;;;;4.60;3.10;;;;;;;;;;5047675;28;20119;-79
2023/03/07 02:15:46;;;;;;;2.33;2.22;;;;;;;;;;5049513;28;20060;-80
2023/03/07 02:18:14;;;;;;;2.42;2.30;;;;;;;;;;5031552;28;20045;-79
2023/03/07 02:20:42;;;;;;;6.05;3.22;;;;;;;;;;5049460;28;20029;-80
2023/03/07 02:23:12;;;;;;;4.22;3.83;;;;;;;;;;5048930;28;20161;-79
2023/03/07 02:25:42;;;;;;;3.53;3.15;;;;;;;;;;5032259;28;20413;-79
2023/03/07 02:28:09;;;;;;;3.33;3.10;;;;;;;;;;5054941;28;20547;-78
2023/03/07 02:30:35;;;;;;;3.45;3.15;;;;;;;;;;5067872;28;20149;-78
2023/03/07 02:33:01;;;;;;;3.08;2.88;;;;;;;;;;5068125;28;20075;-79
2023/03/07 02:35:27;;;;;;;2.40;2.30;;;;;;;;;;5069351;28;20303;-78
2023/03/07 02:37:59;;;;;;;3.42;3.00;;;;;;;;;;5067748;28;20539;-79
2023/03/07 02:40:25;;;;;;;2.67;2.58;;;;;;;;;;5050610;28;20044;-78
2023/03/07 02:42:52;;;;;;;3.28;2.97;;;;;;;;;;5068954;28;20037;-79
2023/03/07 02:45:18;;;;;;;3.55;3.30;;;;;;;;;;5074256;28;20502;-77
2023/03/07 02:47:44;;;;;;;2.40;2.30;;;;;;;;;;5057636;28;20040;-80
2023/03/07 02:50:15;;;;;;;3.13;2.80;;;;;;;;;;5074410;28;20040;-77
2023/03/07 02:52:44;;;;;;;2.88;2.60;;;;;;;;;;5075839;28;20032;-78
2023/03/07 02:55:11;;;;;;;5.32;1.92;;;;;;;;;;5074376;28;20048;-79
2023/03/07 02:57:43;;;;;;;3.25;3.05;;;;;;;;;;5074280;28;20052;-78
2023/03/07 03:00:11;;;;;;;2.30;2.20;;;;;;;;;;5075462;28;20523;-78
2023/03/07 03:02:37;;;;;;;4.00;3.70;;;;;;;;;;5075372;28;20492;-77
2023/03/07 03:05:03;;;;;;;2.97;2.78;;;;;;;;;;5075254;28;20040;-79
2023/03/07 03:07:30;;;;;;;3.80;3.50;;;;;;;;;;5075064;28;20491;-78
2023/03/07 03:09:56;;;;;;;4.47;3.40;;;;;;;;;;5074215;28;20558;-79
2023/03/07 03:12:23;;;;;;;2.95;2.75;;;;;;;;;;5074158;28;20044;-78
2023/03/07 03:14:49;;;;;;;2.85;2.55;;;;;;;;;;5057823;28;20039;-79
2023/03/07 03:17:15;;;;;;;3.58;3.28;;;;;;;;;;5074386;28;20127;-78
2023/03/07 03:19:41;;;;;;;3.45;3.25;;;;;;;;;;5075303;28;20162;-78
2023/03/07 03:22:09;;;;;;;3.25;2.97;;;;;;;;;;5075656;28;20594;-79
2023/03/07 03:24:39;;;;;;;2.10;2.05;;;;;;;;;;5075528;28;20039;-79
2023/03/07 03:27:06;;;;;;;4.13;2.60;;;;;;;;;;5057725;28;20029;-79
2023/03/07 03:29:33;;;;;;;3.30;3.10;;;;;;;;;;5073607;28;20054;-77
2023/03/07 03:32:02;;;;;;;3.13;2.90;;;;;;;;;;5074065;28;20087;-77
2023/03/07 03:34:29;;;;;;;4.80;3.95;;;;;;;;;;5054742;28;20066;-77
2023/03/07 03:36:55;;;;;;;3.47;3.28;;;;;;;;;;5073637;28;20064;-77
2023/03/07 03:39:21;;;;;;;2.03;1.92;;;;;;;;;;5081373;28;20029;-78
2023/03/07 03:41:52;;;;;;;4.43;4.03;;;;;;;;;;5079971;28;20421;-77
2023/03/07 03:44:21;;;;;;;4.43;4.03;;;;;;;;;;5053967;28;20086;-78
2023/03/07 03:46:48;;;;;;;4.43;3.30;;;;;;;;;;5055479;28;20064;-76
2023/03/07 03:49:15;;;;;;;3.85;3.55;;;;;;;;;;5037086;28;20074;-76
2023/03/07 03:51:43;;;;;;;4.53;3.55;;;;;;;;;;5070795;28;20032;-77
2023/03/07 03:54:09;;;;;;;3.75;3.47;;;;;;;;;;5073147;28;20081;-78
2023/03/07 03:56:36;;;;;;;4.20;3.90;;;;;;;;;;5051052;28;20032;-78
2023/03/07 03:59:02;;;;;;;3.65;3.35;;;;;;;;;;5072018;28;20060;-77
2023/03/07 04:01:28;;;;;;;2.85;2.65;;;;;;;;;;5071603;28;20407;-78
2023/03/07 04:03:55;;;;;;;3.42;3.20;;;;;;;;;;5037905;28;20585;-77
2023/03/07 04:06:22;;;;;;;2.75;2.53;;;;;;;;;;5054190;28;20818;-78
2023/03/07 04:08:49;;;;;;;3.30;3.00;;;;;;;;;;5071404;28;20052;-77
2023/03/07 04:11:15;;;;;;;4.47;3.40;;;;;;;;;;5036584;28;20501;-77
2023/03/07 04:13:41;;;;;;;4.00;3.70;;;;;;;;;;5042867;28;20112;-77
2023/03/07 04:16:08;;;;;;;4.03;3.65;;;;;;;;;;5062141;28;20032;-76
2023/03/07 04:18:34;;;;;;;3.45;3.25;;;;;;;;;;5042235;28;20033;-77
2023/03/07 04:21:00;;;;;;;3.08;2.78;;;;;;;;;;5061033;28;20639;-77
2023/03/07 04:23:26;;;;;;;3.47;3.28;;;;;;;;;;5058426;28;20040;-78
2023/03/07 04:25:56;;;;;;;4.28;2.50;;;;;;;;;;5036577;28;20036;-78
2023/03/07 04:28:23;;;;;;;5.75;3.45;;;;;;;;;;5033590;28;20044;-79
2023/03/07 04:30:51;;;;;;;6.97;4.55;;;;;;;;;;5035835;28;20032;-79
2023/03/07 04:33:17;;;;;;;3.42;3.15;;;;;;;;;;5037084;28;20036;-79
2023/03/07 04:35:44;;;;;;;8.90;3.80;;;;;;;;;;5052007;28;20124;-78
2023/03/07 04:38:11;;;;;;;7.15;5.20;;;;;;;;;;5035537;28;20554;-79
2023/03/07 04:40:38;;;;;;;3.15;2.95;;;;;;;;;;5035481;28;20111;-78
2023/03/07 04:43:05;;;;;;;3.05;2.85;;;;;;;;;;5052727;28;20036;-78
2023/03/07 04:45:36;;;;;;;4.70;3.28;;;;;;;;;;5056359;28;20059;-78
2023/03/07 04:48:03;;;;;;;2.70;2.50;;;;;;;;;;5070063;28;20047;-79
2023/03/07 04:50:30;;;;;;;8.68;4.18;;;;;;;;;;5069741;28;20036;-78
2023/03/07 04:52:56;;;;;;;3.33;3.13;;;;;;;;;;5071238;28;20709;-78
2023/03/07 04:55:23;;;;;;;3.75;3.45;;;;;;;;;;5069714;28;20036;-78
2023/03/07 04:57:50;;;;;;;3.70;3.47;;;;;;;;;;5069554;28;20066;-79
2023/03/07 05:00:18;;;;;;;4.15;3.85;;;;;;;;;;5052971;28;20120;-77
2023/03/07 05:02:45;;;;;;;4.60;3.80;;;;;;;;;;5053386;28;20028;-79
2023/03/07 05:05:12;;;;;;;3.95;3.65;;;;;;;;;;5070928;28;20105;-79
2023/03/07 05:07:38;;;;;;;3.92;3.55;;;;;;;;;;5069208;28;20243;-79
2023/03/07 05:10:08;;;;;;;4.75;4.45;;;;;;;;;;5069798;28;20062;-77
2023/03/07 05:12:35;;;;;;;4.47;3.55;;;;;;;;;;5071284;28;20036;-79
2023/03/07 05:15:05;;;;;;;2.73;2.63;;;;;;;;;;5060937;28;20117;-80
2023/03/07 05:17:31;;;;;;;4.78;4.38;;;;;;;;;;5051135;28;20574;-80
2023/03/07 05:19:57;;;;;;;3.72;3.42;;;;;;;;;;5050271;28;20037;-79
2023/03/07 05:22:23;;;;;;;4.18;3.78;;;;;;;;;;5049299;28;20033;-79
2023/03/07 05:24:49;;;;;;;4.15;3.50;;;;;;;;;;5048579;28;20032;-79
2023/03/07 05:27:16;;;;;;;4.30;3.95;;;;;;;;;;5048797;28;20043;-78
2023/03/07 05:29:42;;;;;;;2.92;2.72;;;;;;;;;;5031883;28;20033;-79
2023/03/07 05:32:09;;;;;;;3.78;3.15;;;;;;;;;;5050371;28;20094;-80
2023/03/07 05:34:37;;;;;;;4.05;3.75;;;;;;;;;;5042595;28;20032;-79
2023/03/07 05:37:03;;;;;;;3.67;3.35;;;;;;;;;;5050445;28;20032;-80
2023/03/07 05:39:29;;;;;;;5.30;3.55;;;;;;;;;;5049187;28;20045;-80
2023/03/07 05:41:56;;;;;;;6.53;3.65;;;;;;;;;;5056299;28;20033;-78
2023/03/07 05:44:22;;;;;;;3.75;3.45;;;;;;;;;;5060603;28;20482;-77
2023/03/07 05:46:48;;;;;;;2.28;2.17;;;;;;;;;;5062778;28;20532;-79
2023/03/07 05:49:15;;;;;;;4.20;3.80;;;;;;;;;;5068752;28;20543;-78
2023/03/07 05:51:40;;;;;;;3.95;3.65;;;;;;;;;;5065518;28;20028;-78
2023/03/07 05:54:09;;;;;;;6.13;4.22;;;;;;;;;;5068449;28;20131;-79
2023/03/07 05:56:36;;;;;;;5.15;4.65;;;;;;;;;;5067862;28;20046;-78
2023/03/07 05:59:04;;;;;;;3.67;3.35;;;;;;;;;;5082179;28;20065;-81
2023/03/07 06:01:30;;;;;;;12.93;3.65;;;;;;;;;;5054565;28;20029;-82
2023/03/07 06:03:57;;;;;;;4.20;3.88;;;;;;;;;;5054844;28;20070;-81
2023/03/07 06:06:23;;;;;;;4.53;4.10;;;;;;;;;;5062717;28;20033;-79
2023/03/07 06:08:49;;;;;;;6.05;4.60;;;;;;;;;;5048507;28;20102;-81
2023/03/07 06:11:16;;;;;;;5.80;5.20;;;;;;;;;;5032704;28;20033;-80
2023/03/07 06:13:42;;;;;;;3.72;3.42;;;;;;;;;;5050879;28;20154;-80
2023/03/07 06:16:08;;;;;;;5.85;5.22;;;;;;;;;;5053941;28;20176;-81
2023/03/07 06:18:36;;;;;;;3.45;3.22;;;;;;;;;;5072334;28;20050;-81
2023/03/07 06:21:04;;;;;;;4.95;3.85;;;;;;;;;;5072716;28;20034;-80
2023/03/07 06:23:34;;;;;;;5.38;4.10;;;;;;;;;;5072485;28;20060;-80
2023/03/07 06:26:11;;;;;;;4.65;3.78;;;;;;;;;;5073507;28;20040;-83
2023/03/07 06:28:38;;;;;;;3.97;3.58;;;;;;;;;;5072194;28;20052;-83
2023/03/07 06:31:09;;;;;;;3.22;3.00;;;;;;;;;;5075860;28;20052;-81
2023/03/07 06:33:35;;;;;;;3.70;3.40;;;;;;;;;;5068837;28;20119;-82
2023/03/07 06:36:06;;;;;;;5.25;4.75;;;;;;;;;;5071013;28;20363;-82
2023/03/07 06:38:35;;;;;;;3.90;3.60;;;;;;;;;;5062382;28;20036;-84
2023/03/07 06:41:01;;;;;;;4.72;4.00;;;;;;;;;;5075047;28;20033;-82
2023/03/07 06:43:31;;;;;;;6.95;5.28;;;;;;;;;;5073772;28;20070;-84
2023/03/07 06:45:57;;;;;;;6.88;4.55;;;;;;;;;;5047617;28;20557;-79
2023/03/07 06:48:27;;;;;;;3.67;3.35;;;;;;;;;;5060686;28;20579;-82
2023/03/07 06:50:53;;;;;;;6.60;4.95;;;;;;;;;;5060694;28;20041;-83
2023/03/07 06:53:19;;;;;;;4.78;4.28;;;;;;;;;;5044106;28;20045;-83
2023/03/07 06:55:49;;;;;;;9.05;5.28;;;;;;;;;;5044415;28;20059;-84
2023/03/07 06:58:16;;;;;;;6.07;5.22;;;;;;;;;;5060404;28;20048;-83
2023/03/07 07:00:42;;;;;;;4.97;3.90;;;;;;;;;;5063365;28;20060;-82
2023/03/07 07:03:11;;;;;;;5.53;4.50;;;;;;;;;;5064791;28;20560;-82
2023/03/07 07:05:37;;;;;;;7.93;3.97;;;;;;;;;;5059944;28;20055;-81
2023/03/07 07:08:03;;;;;;;4.85;4.43;;;;;;;;;;5060777;28;20047;-82
2023/03/07 07:10:29;;;;;;;5.47;4.70;;;;;;;;;;5063526;28;20049;-83
2023/03/07 07:12:56;;;;;;;10.68;5.20;;;;;;;;;;5061712;28;20041;-84
2023/03/07 07:15:23;;;;;;;5.88;5.38;;;;;;;;;;5042846;28;20037;-80
2023/03/07 07:17:49;;;;;;;4.18;3.88;;;;;;;;;;5074425;28;20071;-86
2023/03/07 07:20:15;;;;;;;7.90;4.63;;;;;;;;;;5054050;28;20033;-83
2023/03/07 07:22:41;;;;;;;5.55;3.92;;;;;;;;;;5057446;28;20535;-81
2023/03/07 07:25:08;;;;;;;6.95;4.40;;;;;;;;;;5061346;28;20032;-80
2023/03/07 07:27:35;;;;;;;8.45;4.05;;;;;;;;;;5055954;28;20033;-80
2023/03/07 07:30:03;;;;;;;7.30;4.53;;;;;;;;;;5052641;28;20036;-81
2023/03/07 07:32:30;;;;;;;5.60;4.35;;;;;;;;;;5045680;28;20033;-82
2023/03/07 07:34:57;;;;;;;5.80;4.82;;;;;;;;;;5078957;28;20037;-81
2023/03/07 07:37:23;;;;;;;6.15;4.15;;;;;;;;;;5084505;28;20016;-81
2023/03/07 07:39:49;;;;;;;6.72;4.68;;;;;;;;;;5080004;28;20047;-83
2023/03/07 07:42:15;;;;;;;6.40;3.83;;;;;;;;;;5082463;28;20047;-83
2023/03/07 07:45:11;;;;;;;4.25;3.90;;;;;;;;;;5027238;28;20136;-82
2023/03/07 07:47:37;;;;;;;4.50;4.10;;;;;;;;;;5079728;28;20181;-79
2023/03/07 07:50:04;;;;;;;4.25;3.58;;;;;;;;;;5065140;28;20055;-80
2023/03/07 07:52:33;;;;;;;4.95;4.55;;;;;;;;;;5072113;28;20041;-82
2023/03/07 07:54:59;;;;;;;3.42;3.22;;;;;;;;;;5072973;28;20037;-81
2023/03/07 07:57:26;;;;;;;4.15;3.83;;;;;;;;;;5068529;28;20037;-78
2023/03/07 07:59:53;;;;;;;7.95;5.10;;;;;;;;;;5065270;28;20040;-80
2023/03/07 08:02:19;;;;;;;6.50;4.60;;;;;;;;;;5050694;28;20096;-81
2023/03/07 08:04:46;;;;;;;2.67;2.55;;;;;;;;;;5061664;28;20044;-79
2023/03/07 08:07:13;;;;;;;6.50;4.78;;;;;;;;;;5078537;28;20116;-81
2023/03/07 08:09:39;;;;;;;4.15;3.75;;;;;;;;;;5078824;28;20036;-81
2023/03/07 08:12:05;;;;;;;4.57;4.18;;;;;;;;;;5073977;28;20511;-82
2023/03/07 08:14:32;;;;;;;6.00;4.68;;;;;;;;;;5072999;28;20376;-82
2023/03/07 08:16:58;;;;;;;2.95;2.75;;;;;;;;;;5077167;28;20032;-81
2023/03/07 08:19:24;;;;;;;5.93;4.63;;;;;;;;;;5077579;28;20088;-84
2023/03/07 08:21:50;;;;;;;5.95;4.35;;;;;;;;;;5073725;28;20526;-82
2023/03/07 08:24:16;;;;;;;6.85;3.95;;;;;;;;;;5073961;28;20043;-82
2023/03/07 08:26:42;;;;;;;6.25;5.20;;;;;;;;;;5071835;28;20455;-80
2023/03/07 08:29:08;;;;;;;7.15;5.80;;;;;;;;;;5049743;28;20041;-80
2023/03/07 08:31:34;;;;;;;5.25;4.85;;;;;;;;;;5084226;28;20528;-81
2023/03/07 08:34:00;;;;;;;4.40;4.00;;;;;;;;;;5070882;28;20464;-80
2023/03/07 08:36:26;;;;;;;7.75;6.32;;;;;;;;;;5086531;28;20055;-79
2023/03/07 08:38:52;;;;;;;5.32;4.75;;;;;;;;;;5084264;28;20035;-80
2023/03/07 08:41:19;;;;;;;7.10;6.22;;;;;;;;;;5071361;28;20037;-82
2023/03/07 08:43:45;;;;;;;4.50;3.90;;;;;;;;;;5071899;28;20037;-82
2023/03/07 08:46:11;;;;;;;5.70;4.88;;;;;;;;;;5072821;28;20060;-81
2023/03/07 08:48:37;;;;;;;9.07;6.32;;;;;;;;;;5088389;28;20096;-81
2023/03/07 08:51:10;;;;;;;5.53;5.03;;;;;;;;;;5070450;28;20040;-80
2023/03/07 08:53:36;;;;;;;5.90;5.38;;;;;;;;;;5087208;28;20040;-81
2023/03/07 08:56:07;;;;;;;9.70;5.32;;;;;;;;;;5064779;28;20094;-80
2023/03/07 08:58:33;;;;;;;7.32;5.70;;;;;;;;;;5064038;28;20518;-84
2023/03/07 09:00:59;;;;;;;9.00;5.30;;;;;;;;;;5066503;28;20655;-85
2023/03/07 09:03:25;;;;;;;6.55;5.55;;;;;;;;;;5067573;28;20112;-86
2023/03/07 09:05:51;;;;;;;5.43;4.82;;;;;;;;;;5066986;28;20193;-84
2023/03/07 09:08:17;;;;;;;5.95;5.35;;;;;;;;;;5067845;28;20037;-84
2023/03/07 09:10:43;;;;;;;5.57;5.00;;;;;;;;;;5083257;28;20037;-83
2023/03/07 09:13:09;;;;;;;8.25;5.38;;;;;;;;;;5052055;28;20095;-85
2023/03/07 09:15:39;;;;;;;5.75;5.10;;;;;;;;;;5069531;28;20525;-81
2023/03/07 09:18:05;;;;;;;9.52;6.00;;;;;;;;;;5064256;28;20036;-84
2023/03/07 09:20:31;;;;;;;5.55;4.68;;;;;;;;;;5065605;28;20029;-86
2023/03/07 09:22:58;;;;;;;6.78;5.68;;;;;;;;;;5066453;28;20051;-86
2023/03/07 09:25:24;;;;;;;4.95;4.55;;;;;;;;;;5066986;28;20044;-85
2023/03/07 09:27:51;;;;;;;6.15;5.55;;;;;;;;;;5066357;28;20096;-84
2023/03/07 09:30:17;;;;;;;5.72;4.90;;;;;;;;;;5085748;28;20029;-82
2023/03/07 09:32:44;;;;;;;6.65;5.97;;;;;;;;;;5079546;28;20097;-83
2023/03/07 09:35:10;;;;;;;6.40;5.80;;;;;;;;;;5061325;28;20036;-83
2023/03/07 09:37:36;;;;;;;6.53;5.03;;;;;;;;;;5058542;28;20074;-79
2023/03/07 09:40:06;;;;;;;5.95;4.72;;;;;;;;;;5069638;28;20089;-79
2023/03/07 09:42:39;;;;;;;5.88;5.30;;;;;;;;;;5072747;28;20063;-81
2023/03/07 09:45:08;;;;;;;11.20;4.90;;;;;;;;;;5071159;28;20051;-83
2023/03/07 09:47:49;;;;;;;6.82;6.22;;;;;;;;;;5061608;28;20186;-81
2023/03/07 09:50:18;;;;;;;5.53;4.85;;;;;;;;;;5056491;28;20032;-82
2023/03/07 09:52:44;;;;;;;6.75;5.25;;;;;;;;;;5039929;28;20041;-83
2023/03/07 09:55:11;;;;;;;5.82;5.25;;;;;;;;;;5034126;28;20033;-82
2023/03/07 09:57:48;;;;;;;7.05;4.95;;;;;;;;;;5039830;28;20033;-83
2023/03/07 10:00:23;;;;;;;5.00;4.50;;;;;;;;;;5048776;28;20043;-82
2023/03/07 10:02:58;;;;;;;6.53;4.93;;;;;;;;;;5048087;28;20041;-83
2023/03/07 10:05:23;;;;;;;;;;;;;;;;;;5043115;28;20044;-82
2023/03/07 10:07:52;;;;;;;5.80;5.18;;;;;;;;;;5058569;28;19921;-81
2023/03/07 10:10:20;;;;;;;4.85;4.43;;;;;;;;;;5069114;28;20032;-82
2023/03/07 10:12:49;;;;;;;9.70;5.38;;;;;;;;;;5066352;28;20589;-81
2023/03/07 10:15:18;;;;;;;6.45;4.97;;;;;;;;;;5075416;28;20043;-81
2023/03/07 10:17:48;;;;;;;5.72;5.18;;;;;;;;;;5077567;28;20051;-81
2023/03/07 10:20:29;;;;;;;7.38;5.10;;;;;;;;;;5062753;28;20032;-81
2023/03/07 10:23:22;;;;;;;5.50;5.00;;;;;;;;;;5079187;28;20044;-82
2023/03/07 10:25:57;;;;;;;5.50;4.55;;;;;;;;;;5063083;28;20040;-80
2023/03/07 10:28:24;;;;;;;5.18;4.20;;;;;;;;;;5042826;28;20057;-84
2023/03/07 10:30:51;;;;;;;4.88;4.32;;;;;;;;;;5043323;28;20037;-84
2023/03/07 10:33:17;;;;;;;7.82;5.38;;;;;;;;;;5052512;28;20363;-83
2023/03/07 10:35:44;;;;;;;5.05;4.50;;;;;;;;;;5076229;28;20093;-81
2023/03/07 10:38:22;;;;;;;5.03;4.38;;;;;;;;;;5043445;28;20573;-83
2023/03/07 10:40:49;;;;;;;8.13;4.78;;;;;;;;;;5059654;28;20041;-81
2023/03/07 10:43:24;;;;;;;5.15;4.43;;;;;;;;;;5055235;28;20066;-81
2023/03/07 10:46:09;;;;;;;4.40;4.00;;;;;;;;;;5039585;28;20049;-83
2023/03/07 10:48:36;;;;;;;5.90;5.00;;;;;;;;;;5051667;28;20132;-79
2023/03/07 10:51:06;;;;;;;6.55;5.25;;;;;;;;;;5067054;28;20110;-83
2023/03/07 10:53:35;;;;;;;4.03;3.72;;;;;;;;;;5066050;28;20062;-82
2023/03/07 10:56:14;;;;;;;7.10;4.38;;;;;;;;;;5050056;28;20025;-82
2023/03/07 10:58:58;;;;;;;4.90;4.50;;;;;;;;;;5050718;28;20033;-81
2023/03/07 11:01:26;;;;;;;7.68;5.07;;;;;;;;;;5050754;28;20043;-82
2023/03/07 11:03:59;;;;;;;4.00;3.80;;;;;;;;;;5050175;28;20501;-82
2023/03/07 11:06:26;;;;;;;6.38;5.15;;;;;;;;;;5055170;28;20028;-81
2023/03/07 11:08:52;;;;;;;6.22;3.40;;;;;;;;;;5054666;28;20757;-83
2023/03/07 11:11:25;;;;;;;6.55;4.30;;;;;;;;;;5055574;28;20106;-81
2023/03/07 11:14:06;;;;;;;4.68;4.28;;;;;;;;;;5069250;28;20040;-82
2023/03/07 11:16:32;;;;;;;6.87;4.97;;;;;;;;;;5054534;28;20036;-80
2023/03/07 11:18:58;;;;;;;5.65;3.55;;;;;;;;;;5053523;28;20060;-81
2023/03/07 11:21:24;;;;;;;5.70;4.47;;;;;;;;;;5068562;28;20033;-80
2023/03/07 11:23:57;;;;;;;7.93;4.85;;;;;;;;;;5068279;28;20182;-82
2023/03/07 11:26:22;;;;;;;5.60;4.97;;;;;;;;;;5051971;28;20089;-83
2023/03/07 11:29:02;;;;;;;4.10;3.25;;;;;;;;;;5035581;28;20135;-82
2023/03/07 11:31:28;;;;;;;5.00;4.15;;;;;;;;;;5071173;28;20020;-80
2023/03/07 11:33:54;;;;;;;3.55;3.35;;;;;;;;;;5054118;28;20439;-82
2023/03/07 11:36:26;;;;;;;4.35;3.97;;;;;;;;;;5053645;28;20112;-83
2023/03/07 11:39:00;;;;;;;4.88;3.63;;;;;;;;;;5053292;28;20098;-81
2023/03/07 11:41:30;;;;;;;4.75;4.32;;;;;;;;;;5051954;28;20044;-82
2023/03/07 11:44:03;;;;;;;4.57;4.18;;;;;;;;;;5053052;28;20408;-82
2023/03/07 11:46:50;;;;;;;4.72;4.30;;;;;;;;;;5053580;28;20064;-82
2023/03/07 11:49:35;;;;;;;8.18;3.47;;;;;;;;;;5053031;28;20053;-82
2023/03/07 11:52:11;;;;;;;4.10;3.70;;;;;;;;;;5052847;28;20045;-83
2023/03/07 11:54:37;;;;;;;3.97;3.67;;;;;;;;;;5036022;28;20416;-81
2023/03/07 11:57:23;;;;;;;4.32;3.95;;;;;;;;;;5052956;28;20044;-82
2023/03/07 11:59:55;;;;;;;6.13;4.13;;;;;;;;;;5052498;28;20125;-81
2023/03/07 12:02:27;;;;;;;4.85;3.63;;;;;;;;;;5035646;28;20040;-82
2023/03/07 12:05:06;;;;;;;4.30;3.90;;;;;;;;;;5051957;28;20056;-81
2023/03/07 12:07:38;;;;;;;6.32;4.63;;;;;;;;;;5035106;28;20033;-82
2023/03/07 12:10:22;;;;;;;4.10;3.80;;;;;;;;;;5052810;28;20045;-81
2023/03/07 12:12:48;;;;;;;8.32;4.07;;;;;;;;;;5052796;28;20040;-82
2023/03/07 12:15:29;;;;;;;4.18;3.67;;;;;;;;;;5052067;28;20036;-82
2023/03/07 12:18:13;;;;;;;5.03;4.13;;;;;;;;;;5051093;28;20500;-82
2023/03/07 12:21:07;;;;;;;4.88;3.33;;;;;;;;;;5039026;28;20037;-82
2023/03/07 12:23:38;;;;;;;3.92;3.33;;;;;;;;;;5017679;28;20037;-84
2023/03/07 12:26:10;;;;;;;4.20;3.63;;;;;;;;;;5054404;28;20144;-83
2023/03/07 12:28:49;;;;;;;4.20;3.83;;;;;;;;;;5055310;28;20492;-81
2023/03/07 12:31:29;;;;;;;4.68;3.80;;;;;;;;;;5039569;28;20534;-83
2023/03/07 12:33:56;;;;;;;3.45;3.15;;;;;;;;;;5040391;28;20083;-81
2023/03/07 12:36:22;;;;;;;3.53;3.22;;;;;;;;;;5047739;28;20515;-83
2023/03/07 12:38:55;;;;;;;3.97;3.70;;;;;;;;;;5062440;28;20037;-82
2023/03/07 12:41:28;;;;;;;3.63;3.33;;;;;;;;;;5043325;28;20055;-85
2023/03/07 12:43:56;;;;;;;3.03;2.83;;;;;;;;;;5037172;28;20013;-82
2023/03/07 12:46:40;;;;;;;3.80;3.50;;;;;;;;;;5076257;28;20108;-84
2023/03/07 12:49:21;;;;;;;4.07;2.95;;;;;;;;;;5092501;28;20038;-86
2023/03/07 12:51:58;;;;;;;4.45;2.75;;;;;;;;;;5091284;28;20036;-83
2023/03/07 12:54:27;;;;;;;3.22;3.03;;;;;;;;;;5083065;28;20416;-82
2023/03/07 12:56:53;;;;;;;3.33;3.13;;;;;;;;;;5077712;28;20032;-83
2023/03/07 12:59:20;;;;;;;4.20;3.10;;;;;;;;;;5078104;28;20527;-82
2023/03/07 13:01:59;;;;;;;3.25;2.85;;;;;;;;;;5079074;28;20040;-82
2023/03/07 13:04:35;;;;;;;3.53;3.22;;;;;;;;;;5080994;28;20051;-82
2023/03/07 13:07:04;;;;;;;3.80;3.50;;;;;;;;;;5078674;28;20037;-82
2023/03/07 13:09:32;;;;;;;5.05;4.40;;;;;;;;;;5072984;28;20044;-82
2023/03/07 13:12:24;;;;;;;4.68;4.38;;;;;;;;;;5080450;28;20036;-83
2023/03/07 13:14:57;;;;;;;4.75;4.35;;;;;;;;;;5083128;28;20040;-84
2023/03/07 13:17:30;;;;;;;6.40;3.97;;;;;;;;;;5084042;28;20119;-84
2023/03/07 13:19:59;;;;;;;4.97;3.70;;;;;;;;;;5078670;28;20108;-82
2023/03/07 13:22:35;;;;;;;4.97;4.57;;;;;;;;;;5078174;28;20101;-82
2023/03/07 13:25:21;;;;;;;5.57;5.07;;;;;;;;;;5079725;28;20037;-82
2023/03/07 13:27:50;;;;;;;4.95;4.25;;;;;;;;;;5078735;28;20109;-83
2023/03/07 13:30:20;;;;;;;5.22;4.50;;;;;;;;;;5081729;28;20697;-80
2023/03/07 13:32:47;;;;;;;5.80;5.30;;;;;;;;;;5065727;28;20060;-81
2023/03/07 13:35:18;;;;;;;6.55;5.07;;;;;;;;;;5068825;28;20096;-80
2023/03/07 13:37:57;;;;;;;5.15;4.70;;;;;;;;;;5069215;28;20044;-81
2023/03/07 13:40:33;;;;;;;6.40;5.15;;;;;;;;;;5070571;28;20037;-81
2023/03/07 13:42:59;;;;;;;4.60;4.20;;;;;;;;;;5073470;28;20037;-84
2023/03/07 13:45:39;;;;;;;7.32;4.95;;;;;;;;;;5075017;28;20048;-83
2023/03/07 13:48:09;;;;;;;7.20;5.43;;;;;;;;;;5082460;28;20048;-83
2023/03/07 13:50:35;;;;;;;5.10;4.28;;;;;;;;;;5082169;28;20111;-82
2023/03/07 13:53:01;;;;;;;4.30;3.90;;;;;;;;;;5083646;28;20036;-81
2023/03/07 13:55:28;;;;;;;7.32;5.07;;;;;;;;;;5087904;28;20039;-83
2023/03/07 13:57:55;;;;;;;3.70;3.45;;;;;;;;;;5082548;28;20033;-84
2023/03/07 14:00:23;;;;;;;6.93;6.38;;;;;;;;;;5063862;28;20103;-81
2023/03/07 14:02:49;;;;;;;6.90;6.30;;;;;;;;;;5039099;28;20033;-82
2023/03/07 14:05:18;;;;;;;5.32;4.72;;;;;;;;;;5075804;28;20043;-82
2023/03/07 14:07:50;;;;;;;;;;;;;;;;;;5039861;28;20098;-80
2023/03/07 14:10:23;;;;;;;3.88;3.50;;;;;;;;;;5076070;28;19930;-80
2023/03/07 14:12:50;;;;;;;7.10;4.13;;;;;;;;;;5075427;28;20127;-82
2023/03/07 14:15:46;;;;;;;5.55;3.70;;;;;;;;;;5075474;28;20051;-83
2023/03/07 14:18:22;;;;;;;4.32;4.03;;;;;;;;;;5061892;28;20036;-82
2023/03/07 14:21:08;;;;;;;6.82;5.53;;;;;;;;;;5074113;28;20043;-82
2023/03/07 14:23:53;;;;;;;6.65;5.63;;;;;;;;;;5078395;28;20054;-81
2023/03/07 14:26:20;;;;;;;4.95;4.47;;;;;;;;;;5069167;28;20122;-78
2023/03/07 17:03:03;;;;;;;4.10;3.80;;;;;;;;;;1474054;26;20031;-84
2023/03/07 17:05:30;;;;;;;8.63;3.20;;;;;;;;;;5135518;28;20065;-83
2023/03/07 17:07:56;;;;;;;3.65;3.45;;;;;;;;;;5116973;28;20020;-84
2023/03/07 17:10:23;;;;;;;4.80;4.35;;;;;;;;;;5133591;28;20095;-82
2023/03/07 17:12:49;;;;;;;5.70;4.97;;;;;;;;;;5134714;28;20084;-85
2023/03/07 17:15:17;;;;;;;8.60;7.90;;;;;;;;;;5135138;28;20039;-85
2023/03/07 17:17:43;;;;;;;7.55;6.95;;;;;;;;;;5137391;27;20028;-86
2023/03/07 17:20:13;;;;;;;7.05;5.80;;;;;;;;;;5135522;28;20076;-84
2023/03/07 17:22:39;;;;;;;8.70;7.90;;;;;;;;;;5136273;28;20087;-84
2023/03/07 17:25:05;;;;;;;7.10;6.10;;;;;;;;;;5116998;28;20014;-84
2023/03/07 17:27:37;;;;;;;5.88;5.38;;;;;;;;;;5118578;28;20027;-85